Time;durP1;ratioP1;P1;durP2;ratioP2;P2;SDS_P1;SDS_P2;PMS_P1;PMS_P2;Temp;Humidity;BMP_temperature;BMP_pressure;BME280_temperature;BME280_humidity;BME280_pressure;Samples;Min_cycle;Max_cycle;Signal;HPM_P1;HPM_P2
2021/01/28 00:00:41;;;;;;;8.17;4.17;;;3.50;99.90;;;;;;5088353;27;20219;-66
2021/01/28 00:03:09;;;;;;;9.57;5.53;;;3.60;99.90;;;;;;5110538;27;20233;-67
2021/01/28 00:05:38;;;;;;;7.90;4.10;;;3.60;99.90;;;;;;5087852;28;20759;-67
2021/01/28 00:08:04;;;;;;;6.60;3.93;;;3.60;99.90;;;;;;5073291;27;20530;-67
2021/01/28 00:10:31;;;;;;;10.43;4.87;;;3.50;99.90;;;;;;5068813;28;20877;-67
2021/01/28 00:12:59;;;;;;;8.63;5.03;;;3.50;99.90;;;;;;5103442;27;20455;-68
2021/01/28 00:15:28;;;;;;;7.63;4.00;;;3.50;99.90;;;;;;5091102;28;20463;-66
2021/01/28 00:17:54;;;;;;;6.27;4.27;;;3.50;99.90;;;;;;5092016;27;20445;-68
2021/01/28 00:20:24;;;;;;;6.30;4.47;;;3.60;99.90;;;;;;5106208;28;20518;-68
2021/01/28 00:22:50;;;;;;;9.70;4.93;;;3.60;99.90;;;;;;5106585;28;20455;-66
2021/01/28 00:25:18;;;;;;;4.30;3.23;;;3.60;99.90;;;;;;5054969;28;20455;-66
2021/01/28 00:27:45;;;;;;;7.73;4.00;;;3.50;99.90;;;;;;5098666;27;20226;-66
2021/01/28 00:30:36;;;;;;;6.97;3.67;;;3.50;99.90;;;;;;5071988;28;20572;-67
2021/01/28 00:33:03;;;;;;;8.33;3.93;;;3.60;99.90;;;;;;5092120;28;20527;-66
2021/01/28 00:35:35;;;;;;;8.43;4.50;;;3.60;99.90;;;;;;5111289;28;20483;-68
2021/01/28 00:38:02;;;;;;;7.20;4.07;;;3.60;99.90;;;;;;5106819;28;20448;-66
2021/01/28 00:40:29;;;;;;;5.17;3.73;;;3.60;99.90;;;;;;5072415;28;20514;-67
2021/01/28 00:42:55;;;;;;;6.27;4.33;;;3.60;99.90;;;;;;5076620;28;20457;-66
2021/01/28 00:45:24;;;;;;;8.37;4.70;;;3.60;99.90;;;;;;5081200;28;20455;-67
2021/01/28 00:47:52;;;;;;;5.70;3.50;;;3.60;99.90;;;;;;5088870;28;20997;-66
2021/01/28 00:50:20;;;;;;;5.93;3.60;;;3.60;99.90;;;;;;5089339;28;20449;-67
2021/01/28 00:52:46;;;;;;;6.57;4.07;;;3.60;99.90;;;;;;5105416;27;20210;-67
2021/01/28 00:55:13;;;;;;;9.97;3.80;;;3.60;99.90;;;;;;5092896;28;20444;-67
2021/01/28 00:57:44;;;;;;;5.27;3.63;;;3.60;99.90;;;;;;5091927;27;20449;-67
2021/01/28 01:00:17;;;;;;;11.00;4.87;;;3.60;99.90;;;;;;5110838;28;20483;-67
2021/01/28 01:02:45;;;;;;;8.60;4.50;;;3.60;99.90;;;;;;5092361;28;20458;-67
2021/01/28 01:05:12;;;;;;;4.60;3.07;;;3.70;99.90;;;;;;5109684;28;20447;-67
2021/01/28 01:07:39;;;;;;;3.57;3.23;;;3.70;99.90;;;;;;5108623;28;20479;-66
2021/01/28 01:10:08;;;;;;;5.10;3.73;;;3.70;99.90;;;;;;5102541;28;20442;-66
2021/01/28 01:12:33;;;;;;;4.80;3.70;;;3.70;99.90;;;;;;5071935;28;20223;-67
2021/01/28 01:14:59;;;;;;;8.37;4.17;;;3.70;99.90;;;;;;5069880;28;20502;-67
2021/01/28 01:17:25;;;;;;;5.70;3.63;;;3.60;99.90;;;;;;5072173;28;20457;-67
2021/01/28 01:19:56;;;;;;;5.23;3.40;;;3.70;99.90;;;;;;5091922;27;20214;-70
2021/01/28 01:22:35;;;;;;;6.97;3.97;;;3.70;99.90;;;;;;5088381;28;20443;-70
2021/01/28 01:25:01;;;;;;;7.37;4.33;;;3.70;99.90;;;;;;5074948;28;20460;-70
2021/01/28 01:27:27;;;;;;;6.73;4.40;;;3.70;99.90;;;;;;5064907;28;20224;-71
2021/01/28 01:29:54;;;;;;;6.10;3.37;;;3.70;99.90;;;;;;5091767;27;20459;-71
2021/01/28 01:32:29;;;;;;;5.10;3.30;;;3.70;99.90;;;;;;5092770;28;20964;-70
2021/01/28 01:35:15;;;;;;;5.10;3.10;;;3.70;99.90;;;;;;5095192;28;20451;-71
2021/01/28 01:37:42;;;;;;;7.20;3.83;;;3.70;99.90;;;;;;5094176;28;20831;-70
2021/01/28 01:40:13;;;;;;;7.70;4.00;;;3.80;99.90;;;;;;5113105;28;20525;-70
2021/01/28 01:42:44;;;;;;;5.00;3.67;;;3.80;99.90;;;;;;5095699;28;20501;-70
2021/01/28 01:45:11;;;;;;;6.23;3.10;;;3.80;99.90;;;;;;5096336;28;20451;-71
2021/01/28 01:47:43;;;;;;;6.57;3.93;;;3.80;99.90;;;;;;5112273;28;20551;-70
2021/01/28 01:50:34;;;;;;;8.40;2.77;;;3.80;99.90;;;;;;5092192;28;20815;-69
2021/01/28 01:53:01;;;;;;;6.87;4.30;;;3.80;99.90;;;;;;5091957;28;20816;-69
2021/01/28 01:55:30;;;;;;;8.63;3.87;;;3.80;99.90;;;;;;5112012;28;20456;-69
2021/01/28 01:58:07;;;;;;;6.90;3.63;;;3.80;99.90;;;;;;5096745;28;20452;-69
2021/01/28 02:00:41;;;;;;;6.23;3.80;;;3.80;99.90;;;;;;5096137;28;20450;-69
2021/01/28 02:03:16;;;;;;;4.40;3.17;;;3.80;99.90;;;;;;5096473;28;20471;-69
2021/01/28 02:06:28;;;;;;;6.50;3.60;;;3.80;99.90;;;;;;5112891;28;20447;-69
2021/01/28 02:09:13;;;;;;;5.43;3.97;;;3.80;99.90;;;;;;5112048;28;20467;-70
2021/01/28 02:12:05;;;;;;;5.73;3.70;;;3.80;99.90;;;;;;5097369;27;20444;-70
2021/01/28 02:14:55;;;;;;;7.00;4.03;;;3.80;99.90;;;;;;5084729;28;21002;-69
2021/01/28 02:17:31;;;;;;;7.90;4.37;;;3.90;99.90;;;;;;5096776;28;21021;-69
2021/01/28 02:20:21;;;;;;;7.13;4.37;;;3.90;99.90;;;;;;5098240;28;20445;-70
2021/01/28 02:23:50;;;;;;;6.13;4.30;;;3.90;99.90;;;;;;5097252;28;20523;-70
2021/01/28 02:26:28;;;;;;;8.13;3.80;;;3.90;99.90;;;;;;5089064;28;20817;-69
2021/01/28 02:29:00;;;;;;;7.70;4.80;;;3.90;99.90;;;;;;5110894;27;20948;-71
2021/01/28 02:31:28;;;;;;;5.70;4.03;;;3.90;99.90;;;;;;5086672;28;20440;-71
2021/01/28 02:33:57;;;;;;;6.73;3.77;;;3.90;99.90;;;;;;5094370;28;20306;-70
2021/01/28 02:36:30;;;;;;;7.70;4.10;;;3.90;99.90;;;;;;5075766;28;20482;-69
2021/01/28 02:39:01;;;;;;;4.80;3.33;;;3.90;99.90;;;;;;5047762;28;20861;-69
2021/01/28 02:41:28;;;;;;;6.10;3.90;;;3.90;99.90;;;;;;5094741;28;20448;-70
2021/01/28 02:44:10;;;;;;;7.67;4.10;;;4.00;99.90;;;;;;5096307;28;20817;-69
2021/01/28 02:46:55;;;;;;;7.00;4.00;;;4.00;99.90;;;;;;5097095;27;20471;-70
2021/01/28 02:49:43;;;;;;;5.00;3.87;;;4.00;99.90;;;;;;5093369;28;20472;-70
2021/01/28 02:52:09;;;;;;;4.67;3.63;;;4.00;99.90;;;;;;5092575;28;20436;-70
2021/01/28 02:54:47;;;;;;;5.37;4.07;;;4.00;99.90;;;;;;5091399;28;20231;-69
2021/01/28 02:57:14;;;;;;;7.90;4.00;;;4.00;99.90;;;;;;5074983;28;20519;-69
2021/01/28 02:59:46;;;;;;;5.07;3.50;;;4.00;99.90;;;;;;5078702;28;20457;-69
2021/01/28 03:02:15;;;;;;;6.90;3.70;;;4.00;99.90;;;;;;5093472;28;20446;-69
2021/01/28 03:04:41;;;;;;;5.97;3.60;;;4.00;99.90;;;;;;5104384;27;20468;-69
2021/01/28 03:07:17;;;;;;;5.10;3.33;;;4.00;99.90;;;;;;5095418;28;20431;-69
2021/01/28 03:09:42;;;;;;;5.83;3.27;;;4.00;99.90;;;;;;5111878;27;20460;-71
2021/01/28 03:12:17;;;;;;;6.73;4.13;;;4.00;99.90;;;;;;5110662;28;20463;-69
2021/01/28 03:14:57;;;;;;;5.90;4.17;;;4.10;99.90;;;;;;5095626;27;20515;-70
2021/01/28 03:17:23;;;;;;;4.70;3.33;;;4.10;99.90;;;;;;5110934;28;20527;-69
2021/01/28 03:19:55;;;;;;;6.27;3.57;;;4.10;99.90;;;;;;5110254;28;20448;-70
2021/01/28 03:22:21;;;;;;;7.87;4.13;;;4.10;99.90;;;;;;5077598;28;20797;-70
2021/01/28 03:24:50;;;;;;;4.80;3.53;;;4.10;99.90;;;;;;5094023;27;20479;-69
2021/01/28 03:27:18;;;;;;;5.47;3.63;;;4.10;99.90;;;;;;5077096;28;20436;-69
2021/01/28 03:29:49;;;;;;;4.30;3.27;;;4.10;99.90;;;;;;5089923;28;21177;-69
2021/01/28 03:32:15;;;;;;;6.23;4.43;;;4.10;99.90;;;;;;5057026;28;20512;-69
2021/01/28 03:34:41;;;;;;;7.20;3.70;;;4.10;99.90;;;;;;5076334;27;20804;-69
2021/01/28 03:37:08;;;;;;;8.10;4.00;;;4.10;99.90;;;;;;5110207;28;20440;-69
2021/01/28 03:39:45;;;;;;;7.30;3.03;;;4.10;99.90;;;;;;5094355;27;20550;-69
2021/01/28 03:42:10;;;;;;;6.10;3.40;;;4.10;99.90;;;;;;5076734;28;20531;-71
2021/01/28 03:44:37;;;;;;;6.00;3.87;;;4.10;99.90;;;;;;5060592;28;20263;-69
2021/01/28 03:47:03;;;;;;;5.53;4.10;;;4.10;99.90;;;;;;5089274;28;20512;-69
2021/01/28 03:49:39;;;;;;;5.97;3.10;;;4.10;99.90;;;;;;5094715;28;20459;-69
2021/01/28 03:52:14;;;;;;;3.47;3.13;;;4.10;99.90;;;;;;5090030;28;20988;-69
2021/01/28 03:54:58;;;;;;;4.80;3.33;;;4.10;99.90;;;;;;5095883;27;20479;-70
2021/01/28 03:57:33;;;;;;;5.07;3.50;;;4.00;99.90;;;;;;5074564;28;20456;-69
2021/01/28 04:00:11;;;;;;;7.00;4.43;;;4.00;99.90;;;;;;5091509;28;20453;-69
2021/01/28 04:02:40;;;;;;;5.80;3.40;;;4.00;99.90;;;;;;5087223;28;20458;-67
2021/01/28 04:05:32;;;;;;;5.57;3.27;;;4.00;99.90;;;;;;5082603;28;20456;-67
2021/01/28 04:08:16;;;;;;;4.50;3.50;;;4.00;99.90;;;;;;5110164;28;20843;-67
2021/01/28 04:11:04;;;;;;;4.00;2.83;;;4.00;99.90;;;;;;5109707;28;20474;-67
2021/01/28 04:13:30;;;;;;;3.47;2.60;;;4.10;99.90;;;;;;5076220;28;20886;-67
2021/01/28 04:15:56;;;;;;;4.73;2.43;;;4.10;99.90;;;;;;5092278;27;20253;-68
2021/01/28 04:18:24;;;;;;;4.70;3.30;;;4.10;99.90;;;;;;5093290;28;20468;-68
2021/01/28 04:21:02;;;;;;;4.70;2.80;;;4.10;99.90;;;;;;5060427;28;20434;-67
2021/01/28 04:23:29;;;;;;;3.90;2.70;;;4.10;99.90;;;;;;5106578;28;20453;-68
2021/01/28 04:26:10;;;;;;;4.30;2.80;;;4.10;99.90;;;;;;5061460;28;20456;-67
2021/01/28 04:28:42;;;;;;;4.20;2.63;;;4.10;99.90;;;;;;5057915;28;20454;-67
2021/01/28 04:31:46;;;;;;;3.53;2.67;;;4.10;99.90;;;;;;5077387;28;20560;-67
2021/01/28 04:34:35;;;;;;;3.63;2.37;;;4.10;99.90;;;;;;5070691;28;20464;-67
2021/01/28 04:37:09;;;;;;;3.97;2.73;;;4.10;99.90;;;;;;5075564;28;20460;-67
2021/01/28 04:39:41;;;;;;;3.30;1.90;;;4.10;99.90;;;;;;5088850;28;20552;-67
2021/01/28 04:42:14;;;;;;;3.80;2.70;;;4.20;99.90;;;;;;5072685;28;20524;-67
2021/01/28 04:44:39;;;;;;;5.90;2.97;;;4.20;99.90;;;;;;5072723;28;20520;-67
2021/01/28 04:47:17;;;;;;;4.40;2.67;;;4.20;99.90;;;;;;5088997;28;20452;-67
2021/01/28 04:49:54;;;;;;;5.03;2.67;;;4.20;99.90;;;;;;5090045;28;20461;-67
2021/01/28 04:52:34;;;;;;;6.67;3.53;;;4.20;99.90;;;;;;5109522;28;20447;-67
2021/01/28 04:55:20;;;;;;;4.53;3.10;;;4.20;99.90;;;;;;5109371;28;20455;-68
2021/01/28 04:57:52;;;;;;;6.80;3.57;;;4.20;99.90;;;;;;5089159;28;20456;-69
2021/01/28 05:00:24;;;;;;;4.70;3.03;;;4.20;99.90;;;;;;5076701;28;20597;-67
2021/01/28 05:03:18;;;;;;;9.50;4.60;;;4.20;99.90;;;;;;5065188;28;20543;-67
2021/01/28 05:06:08;;;;;;;4.83;2.97;;;4.30;99.90;;;;;;5108025;27;20462;-67
2021/01/28 05:08:42;;;;;;;4.70;3.43;;;4.30;99.90;;;;;;5092343;28;20501;-67
2021/01/28 05:11:30;;;;;;;5.77;3.80;;;4.30;99.90;;;;;;5075208;28;20455;-69
2021/01/28 05:14:34;;;;;;;5.57;3.60;;;4.30;99.90;;;;;;5051518;28;20537;-67
2021/01/28 05:17:29;;;;;;;7.57;4.37;;;4.30;99.90;;;;;;5080710;28;20471;-68
2021/01/28 05:20:19;;;;;;;8.30;3.73;;;4.30;99.90;;;;;;5099965;28;20473;-68
2021/01/28 05:23:09;;;;;;;7.70;4.30;;;4.30;99.90;;;;;;5112961;28;20510;-68
2021/01/28 05:25:42;;;;;;;9.93;3.73;;;4.30;99.90;;;;;;5096835;28;20464;-66
2021/01/28 05:28:25;;;;;;;6.00;4.00;;;4.30;99.90;;;;;;5113212;28;20535;-67
2021/01/28 05:31:26;;;;;;;5.13;3.87;;;4.30;99.90;;;;;;5111188;27;20532;-67
2021/01/28 05:34:13;;;;;;;14.10;4.40;;;4.40;99.90;;;;;;5113105;28;20456;-67
2021/01/28 05:37:05;;;;;;;7.47;4.70;;;4.30;99.90;;;;;;5097533;27;20460;-67
2021/01/28 05:40:27;;;;;;;8.43;5.43;;;4.30;99.90;;;;;;5110780;27;20550;-67
2021/01/28 05:43:30;;;;;;;9.77;5.50;;;4.30;99.90;;;;;;5092389;28;20486;-67
2021/01/28 05:46:17;;;;;;;7.83;5.30;;;4.40;99.90;;;;;;5091804;28;20433;-68
2021/01/28 05:49:05;;;;;;;8.90;5.20;;;4.30;99.90;;;;;;5078939;27;20467;-67
2021/01/28 05:51:52;;;;;;;8.30;4.97;;;4.30;99.90;;;;;;5091618;28;20459;-67
2021/01/28 05:54:41;;;;;;;8.10;5.60;;;4.30;99.90;;;;;;5091543;28;20445;-67
2021/01/28 05:57:44;;;;;;;5.33;4.10;;;4.40;99.90;;;;;;5111448;28;20968;-67
2021/01/28 06:00:24;;;;;;;5.30;3.83;;;4.40;99.90;;;;;;5080441;28;20444;-68
2021/01/28 06:03:11;;;;;;;9.07;4.93;;;4.40;99.90;;;;;;5092746;27;21002;-70
2021/01/28 06:05:59;;;;;;;5.77;4.57;;;4.40;99.90;;;;;;5112005;27;20467;-69
2021/01/28 06:08:35;;;;;;;4.63;3.43;;;4.40;99.90;;;;;;5107651;28;20742;-70
2021/01/28 06:11:10;;;;;;;7.90;4.90;;;4.40;99.90;;;;;;5113333;27;20448;-70
2021/01/28 06:14:22;;;;;;;9.47;4.00;;;4.40;99.90;;;;;;5100743;28;20459;-69
2021/01/28 06:17:30;;;;;;;7.37;3.97;;;4.40;99.90;;;;;;5116373;28;20992;-69
2021/01/28 06:20:46;;;;;;;6.83;4.20;;;4.40;99.90;;;;;;5109551;28;20518;-69
2021/01/28 06:23:41;;;;;;;4.90;3.03;;;4.40;99.90;;;;;;5075542;28;20452;-69
2021/01/28 06:26:41;;;;;;;8.10;4.20;;;4.40;99.90;;;;;;5099559;28;20441;-69
2021/01/28 06:29:42;;;;;;;5.77;3.80;;;4.40;99.90;;;;;;5118192;28;20476;-69
2021/01/28 06:32:27;;;;;;;6.30;3.73;;;4.40;99.90;;;;;;5099980;28;21054;-70
2021/01/28 06:35:45;;;;;;;5.23;3.17;;;4.40;99.90;;;;;;5104560;27;20455;-68
2021/01/28 06:38:58;;;;;;;8.10;4.13;;;4.50;99.90;;;;;;5113256;28;20560;-69
2021/01/28 06:42:16;;;;;;;7.67;4.00;;;4.50;99.90;;;;;;5096040;28;20452;-67
2021/01/28 06:45:19;;;;;;;6.53;4.03;;;4.50;99.90;;;;;;5095296;28;21004;-67
2021/01/28 06:48:13;;;;;;;5.50;3.63;;;4.40;99.90;;;;;;5095921;28;20538;-66
2021/01/28 06:51:03;;;;;;;5.97;4.13;;;4.50;99.90;;;;;;5115529;28;20460;-69
2021/01/28 06:54:03;;;;;;;7.50;4.57;;;4.50;99.90;;;;;;5115247;28;21035;-70
2021/01/28 06:57:23;;;;;;;9.87;5.67;;;4.50;99.90;;;;;;5115464;27;20560;-69
2021/01/28 07:00:41;;;;;;;7.77;4.07;;;4.50;99.90;;;;;;5112567;28;20501;-69
2021/01/28 07:03:32;;;;;;;13.27;6.40;;;4.50;99.90;;;;;;5091595;28;20455;-69
2021/01/28 07:06:30;;;;;;;9.30;5.60;;;4.50;99.90;;;;;;5110280;27;20437;-69
2021/01/28 07:09:02;;;;;;;8.47;4.87;;;4.50;99.90;;;;;;5094122;28;20562;-70
2021/01/28 07:11:41;;;;;;;10.80;5.50;;;4.50;99.90;;;;;;5095072;28;20477;-68
2021/01/28 07:14:23;;;;;;;9.10;4.87;;;4.50;99.90;;;;;;5080798;28;20989;-70
2021/01/28 07:17:24;;;;;;;10.17;5.27;;;4.50;99.90;;;;;;5085280;28;20444;-68
2021/01/28 07:19:54;;;;;;;10.97;5.87;;;4.50;99.90;;;;;;5089955;28;20492;-69
2021/01/28 07:22:38;;;;;;;12.17;5.23;;;4.50;99.90;;;;;;5095595;28;20467;-69
2021/01/28 07:25:23;;;;;;;5.97;4.87;;;4.50;99.90;;;;;;5096895;28;20461;-69
2021/01/28 07:28:18;;;;;;;8.30;4.37;;;4.50;99.90;;;;;;5092421;28;20472;-69
2021/01/28 07:30:48;;;;;;;12.00;5.43;;;4.50;99.90;;;;;;5094135;27;20452;-69
2021/01/28 07:33:23;;;;;;;20.43;9.47;;;4.60;99.90;;;;;;5116226;28;20447;-70
2021/01/28 07:36:23;;;;;;;22.10;9.83;;;4.60;99.90;;;;;;5099971;27;20436;-70
2021/01/28 07:39:46;;;;;;;24.53;12.50;;;4.60;99.90;;;;;;5107322;28;20465;-69
2021/01/28 07:42:35;;;;;;;19.73;11.20;;;4.60;99.90;;;;;;5050307;28;20450;-70
2021/01/28 07:45:34;;;;;;;24.57;13.50;;;4.60;99.90;;;;;;5059993;28;20828;-69
2021/01/28 07:48:26;;;;;;;15.40;10.70;;;4.60;99.90;;;;;;5093379;28;20546;-69
2021/01/28 07:51:35;;;;;;;9.50;7.90;;;4.60;99.90;;;;;;5106598;27;20456;-69
2021/01/28 07:54:05;;;;;;;13.80;8.67;;;4.60;99.90;;;;;;5095046;28;20492;-68
2021/01/28 07:56:40;;;;;;;16.50;11.30;;;4.60;99.90;;;;;;5113123;28;20478;-69
2021/01/28 07:59:34;;;;;;;8.97;6.30;;;4.60;99.90;;;;;;5113773;28;21077;-69
2021/01/28 08:02:14;;;;;;;8.17;5.67;;;4.60;99.90;;;;;;5069296;27;20521;-69
2021/01/28 08:04:58;;;;;;;6.10;4.03;;;4.60;99.90;;;;;;5114091;28;20465;-67
2021/01/28 08:07:31;;;;;;;7.23;4.07;;;4.60;99.90;;;;;;5112381;28;20463;-69
2021/01/28 08:10:01;;;;;;;6.13;3.70;;;4.60;99.90;;;;;;5096568;27;20452;-68
2021/01/28 08:12:43;;;;;;;3.90;3.50;;;4.60;99.90;;;;;;5078489;28;20469;-68
2021/01/28 08:15:16;;;;;;;7.53;3.90;;;4.60;99.90;;;;;;5114088;28;20448;-70
2021/01/28 08:17:42;;;;;;;5.13;3.30;;;4.60;99.90;;;;;;5112686;27;20452;-72
2021/01/28 08:20:12;;;;;;;6.10;3.47;;;4.60;99.90;;;;;;5111648;28;20502;-72
2021/01/28 08:22:49;;;;;;;5.27;3.10;;;4.60;99.90;;;;;;5111141;28;20226;-71
2021/01/28 08:25:15;;;;;;;5.00;3.27;;;4.60;99.90;;;;;;5112449;28;20484;-69
2021/01/28 08:27:41;;;;;;;8.80;4.53;;;4.60;99.90;;;;;;5092140;28;20506;-72
2021/01/28 08:30:25;;;;;;;7.47;4.63;;;4.70;99.90;;;;;;5061898;28;20704;-71
2021/01/28 08:32:58;;;;;;;5.47;3.77;;;4.70;99.90;;;;;;5091580;28;20282;-72
2021/01/28 08:35:34;;;;;;;8.23;4.80;;;4.70;99.90;;;;;;5077019;28;20460;-72
2021/01/28 08:38:11;;;;;;;6.83;4.20;;;4.70;99.90;;;;;;5111371;28;20555;-71
2021/01/28 08:40:37;;;;;;;9.90;4.70;;;4.70;99.90;;;;;;5107054;28;20463;-71
2021/01/28 08:43:18;;;;;;;11.53;5.67;;;4.70;99.90;;;;;;5087476;28;20440;-71
2021/01/28 08:45:45;;;;;;;9.80;4.10;;;4.70;99.90;;;;;;5074026;28;20484;-70
2021/01/28 08:48:23;;;;;;;5.80;3.57;;;4.70;99.90;;;;;;5074034;28;20461;-71
2021/01/28 08:50:49;;;;;;;6.80;4.47;;;4.70;99.90;;;;;;5090201;28;20472;-72
2021/01/28 08:53:22;;;;;;;5.30;3.67;;;4.70;99.90;;;;;;5056689;28;20445;-71
2021/01/28 08:55:49;;;;;;;3.60;2.97;;;4.70;99.90;;;;;;5086356;28;20215;-72
2021/01/28 08:58:41;;;;;;;5.87;4.30;;;4.70;99.90;;;;;;5091951;28;20547;-71
2021/01/28 09:01:07;;;;;;;8.67;5.23;;;4.70;99.90;;;;;;5091034;28;20477;-72
2021/01/28 09:03:49;;;;;;;6.07;4.50;;;4.70;99.90;;;;;;5094141;28;20467;-71
2021/01/28 09:06:15;;;;;;;4.47;3.60;;;4.70;99.90;;;;;;5110381;28;20457;-69
2021/01/28 09:08:42;;;;;;;5.37;3.77;;;4.80;99.90;;;;;;5089089;27;20461;-73
2021/01/28 09:11:29;;;;;;;6.10;4.60;;;4.80;99.90;;;;;;5112584;28;20699;-71
2021/01/28 09:14:23;;;;;;;5.73;4.07;;;4.80;99.90;;;;;;5108200;28;20448;-72
2021/01/28 09:17:19;;;;;;;6.80;4.30;;;4.80;99.90;;;;;;5070533;28;20493;-70
2021/01/28 09:19:57;;;;;;;7.13;4.90;;;4.80;99.90;;;;;;5103526;27;20460;-72
2021/01/28 09:22:27;;;;;;;5.67;4.40;;;4.80;99.90;;;;;;5092795;28;20455;-73
2021/01/28 09:24:53;;;;;;;4.13;3.70;;;4.80;99.90;;;;;;5092993;27;20468;-72
2021/01/28 09:27:38;;;;;;;5.50;3.90;;;4.80;99.90;;;;;;5096193;28;20456;-71
2021/01/28 09:30:16;;;;;;;6.00;4.47;;;4.80;99.90;;;;;;5089022;27;20443;-70
2021/01/28 09:32:41;;;;;;;8.27;5.57;;;4.80;99.90;;;;;;5108958;28;20463;-72
2021/01/28 09:35:27;;;;;;;13.30;7.30;;;4.90;99.90;;;;;;5077144;28;20449;-71
2021/01/28 09:38:14;;;;;;;11.13;5.80;;;4.90;99.90;;;;;;5090320;27;20211;-72
2021/01/28 09:40:42;;;;;;;7.00;4.60;;;4.80;99.90;;;;;;5072452;28;20461;-72
2021/01/28 09:43:29;;;;;;;9.70;5.30;;;4.80;99.90;;;;;;5073997;28;20461;-70
2021/01/28 09:46:24;;;;;;;7.00;4.43;;;4.90;99.90;;;;;;5096755;28;20481;-72
2021/01/28 09:48:52;;;;;;;11.40;5.40;;;4.90;99.90;;;;;;5084318;28;20477;-72
2021/01/28 09:51:37;;;;;;;8.37;3.70;;;4.90;99.90;;;;;;5093318;28;20464;-70
2021/01/28 09:54:11;;;;;;;4.03;2.80;;;4.90;99.90;;;;;;5078254;27;20494;-71
2021/01/28 09:56:38;;;;;;;5.10;3.30;;;4.90;99.90;;;;;;5095561;28;20460;-66
2021/01/28 09:59:04;;;;;;;8.43;4.27;;;4.90;99.90;;;;;;5095405;27;20467;-69
2021/01/28 10:01:30;;;;;;;4.97;3.43;;;4.90;99.90;;;;;;5099281;28;20459;-67
2021/01/28 10:03:55;;;;;;;5.33;3.67;;;4.90;99.90;;;;;;5093611;28;20270;-69
2021/01/28 10:06:21;;;;;;;5.80;3.20;;;4.90;99.90;;;;;;5098461;28;20218;-67
2021/01/28 10:08:47;;;;;;;4.47;3.70;;;4.90;99.90;;;;;;5090874;28;20247;-69
2021/01/28 10:11:13;;;;;;;4.13;3.63;;;4.90;99.90;;;;;;5079277;28;20227;-70
2021/01/28 10:13:39;;;;;;;5.03;3.60;;;5.00;99.90;;;;;;5090318;28;20463;-67
2021/01/28 10:16:05;;;;;;;4.30;3.60;;;5.00;99.90;;;;;;5098488;28;20444;-69
2021/01/28 10:18:30;;;;;;;5.80;3.67;;;5.00;99.90;;;;;;5063718;28;20765;-68
2021/01/28 10:20:56;;;;;;;4.50;3.27;;;5.00;99.90;;;;;;5079379;28;20692;-69
2021/01/28 10:23:22;;;;;;;9.70;3.30;;;5.00;99.90;;;;;;5117180;28;20218;-68
2021/01/28 10:25:48;;;;;;;5.97;4.07;;;5.00;99.90;;;;;;5115831;27;20242;-68
2021/01/28 10:28:14;;;;;;;12.30;3.80;;;5.00;99.90;;;;;;5081999;28;20563;-69
2021/01/28 10:30:39;;;;;;;4.50;3.60;;;5.00;99.90;;;;;;5100339;28;20234;-70
2021/01/28 10:33:05;;;;;;;6.20;4.07;;;5.00;99.90;;;;;;5114818;28;20290;-72
2021/01/28 10:35:33;;;;;;;7.83;3.90;;;5.00;99.90;;;;;;5059547;28;20221;-72
2021/01/28 10:38:00;;;;;;;7.83;3.60;;;5.00;99.90;;;;;;5111390;27;20490;-71
2021/01/28 10:40:27;;;;;;;8.33;3.60;;;5.10;99.90;;;;;;5098113;28;20474;-70
2021/01/28 10:42:57;;;;;;;5.87;3.17;;;5.00;99.90;;;;;;5114074;27;20457;-70
2021/01/28 10:45:26;;;;;;;6.70;3.90;;;5.10;99.90;;;;;;5096061;28;21171;-70
2021/01/28 10:47:51;;;;;;;8.33;3.70;;;5.10;99.90;;;;;;5114947;27;20475;-72
2021/01/28 10:50:21;;;;;;;4.93;3.60;;;5.10;99.90;;;;;;5098023;28;20448;-71
2021/01/28 10:52:47;;;;;;;5.00;3.10;;;5.10;99.90;;;;;;5064603;27;20275;-71
2021/01/28 10:55:13;;;;;;;3.20;2.63;;;5.10;99.90;;;;;;5096946;28;20581;-71
2021/01/28 10:57:38;;;;;;;3.77;3.37;;;5.10;99.90;;;;;;5094806;28;20474;-70
2021/01/28 11:00:05;;;;;;;6.07;3.43;;;5.10;99.90;;;;;;5076512;28;20305;-70
2021/01/28 11:02:31;;;;;;;5.27;3.33;;;5.10;99.90;;;;;;5077229;28;20223;-70
2021/01/28 11:04:56;;;;;;;3.23;2.77;;;5.10;99.90;;;;;;5093839;27;20441;-71
2021/01/28 11:07:22;;;;;;;2.77;2.47;;;5.10;99.90;;;;;;5097833;28;20774;-71
2021/01/28 11:09:48;;;;;;;5.63;4.03;;;5.20;99.90;;;;;;5113509;27;20270;-72
2021/01/28 11:12:13;;;;;;;4.23;2.60;;;5.20;99.90;;;;;;5096319;28;20362;-71
2021/01/28 11:14:39;;;;;;;3.80;2.80;;;5.20;99.90;;;;;;5062366;28;20231;-70
2021/01/28 11:17:05;;;;;;;3.83;3.43;;;5.20;99.90;;;;;;5079085;28;20704;-69
2021/01/28 11:19:30;;;;;;;5.57;4.57;;;5.20;99.90;;;;;;5080216;28;20229;-71
2021/01/28 11:21:56;;;;;;;7.90;5.10;;;5.20;99.90;;;;;;5080112;28;20224;-70
2021/01/28 11:24:21;;;;;;;12.30;4.07;;;5.30;99.90;;;;;;5097545;28;20720;-70
2021/01/28 11:26:47;;;;;;;5.63;3.70;;;5.30;99.90;;;;;;5065311;28;20264;-70
2021/01/28 11:29:13;;;;;;;4.53;3.77;;;5.30;99.90;;;;;;5097998;28;20294;-71
2021/01/28 11:31:38;;;;;;;4.63;3.23;;;5.30;99.90;;;;;;5097385;28;20701;-71
2021/01/28 11:34:05;;;;;;;4.73;2.40;;;5.30;99.90;;;;;;5095418;28;20221;-70
2021/01/28 11:36:31;;;;;;;3.20;2.47;;;5.30;99.90;;;;;;5091948;28;20602;-70
2021/01/28 11:38:58;;;;;;;2.80;2.43;;;5.30;99.90;;;;;;5108752;28;20456;-70
2021/01/28 11:41:24;;;;;;;3.33;2.40;;;5.40;99.90;;;;;;5108567;28;20456;-70
2021/01/28 11:43:50;;;;;;;2.87;2.00;;;5.40;99.90;;;;;;5058381;28;20452;-71
2021/01/28 11:46:15;;;;;;;5.20;2.97;;;5.40;99.90;;;;;;5055072;28;20989;-70
2021/01/28 11:48:41;;;;;;;4.00;3.57;;;5.50;99.90;;;;;;5071282;28;20711;-70
2021/01/28 11:51:07;;;;;;;8.90;6.20;;;5.50;99.90;;;;;;5071999;28;20280;-71
2021/01/28 11:53:32;;;;;;;13.43;6.30;;;5.50;99.90;;;;;;5088962;28;20252;-70
2021/01/28 11:55:58;;;;;;;7.07;4.73;;;5.50;99.90;;;;;;5070674;28;20225;-70
2021/01/28 11:58:24;;;;;;;12.77;7.17;;;5.50;99.90;;;;;;5088939;28;20227;-70
2021/01/28 12:00:51;;;;;;;9.87;5.77;;;5.60;99.90;;;;;;5070512;28;20226;-71
2021/01/28 12:03:16;;;;;;;9.43;6.03;;;5.60;99.90;;;;;;5058745;28;20739;-71
2021/01/28 12:05:43;;;;;;;13.07;7.63;;;5.60;99.90;;;;;;5096654;27;20484;-68
2021/01/28 12:08:08;;;;;;;19.70;8.47;;;5.60;99.90;;;;;;5114676;28;20656;-71
2021/01/28 12:10:34;;;;;;;19.63;9.87;;;5.60;99.90;;;;;;5097593;28;20452;-69
2021/01/28 12:13:00;;;;;;;17.57;9.10;;;5.70;99.90;;;;;;5112483;27;20219;-71
2021/01/28 12:15:27;;;;;;;21.40;10.70;;;5.70;99.90;;;;;;5097987;28;20322;-70
2021/01/28 12:17:54;;;;;;;19.27;11.63;;;5.70;99.90;;;;;;5112655;27;20460;-71
2021/01/28 12:20:24;;;;;;;26.87;16.40;;;5.70;99.90;;;;;;5113560;28;20502;-70
2021/01/28 12:22:50;;;;;;;37.53;18.37;;;5.80;99.90;;;;;;5112854;27;20463;-70
2021/01/28 12:25:16;;;;;;;64.73;30.30;;;5.80;99.90;;;;;;5078903;28;20456;-72
2021/01/28 12:27:41;;;;;;;72.83;34.07;;;5.90;99.90;;;;;;5113373;28;20331;-71
2021/01/28 12:30:10;;;;;;;82.73;32.23;;;5.90;99.90;;;;;;5096861;28;20235;-71
2021/01/28 12:32:37;;;;;;;45.93;22.67;;;6.00;99.90;;;;;;5096658;28;20249;-71
2021/01/28 12:35:05;;;;;;;26.70;15.30;;;6.10;99.90;;;;;;5059555;28;20531;-70
2021/01/28 12:37:31;;;;;;;21.47;13.87;;;6.10;99.90;;;;;;5098466;28;20460;-71
2021/01/28 12:39:56;;;;;;;17.10;10.47;;;6.10;99.90;;;;;;5073307;27;20440;-71
2021/01/28 12:42:25;;;;;;;14.03;8.47;;;6.30;99.90;;;;;;5096763;28;20838;-69
2021/01/28 12:44:51;;;;;;;11.53;7.10;;;6.30;99.90;;;;;;5097270;27;20218;-72
2021/01/28 12:47:17;;;;;;;8.13;5.87;;;6.40;99.90;;;;;;5079944;28;20810;-70
2021/01/28 12:49:43;;;;;;;7.43;5.20;;;6.50;99.90;;;;;;5113424;27;20510;-71
2021/01/28 12:52:08;;;;;;;5.87;3.93;;;6.50;99.90;;;;;;5079913;28;20456;-70
2021/01/28 12:54:34;;;;;;;6.40;4.00;;;6.60;99.90;;;;;;5064358;28;20230;-71
2021/01/28 12:57:00;;;;;;;6.07;4.00;;;6.70;99.90;;;;;;5060353;28;20305;-71
2021/01/28 12:59:25;;;;;;;5.70;3.70;;;6.80;99.90;;;;;;5076161;28;20219;-69
2021/01/28 13:01:51;;;;;;;8.30;4.50;;;6.90;99.90;;;;;;5091930;28;20215;-71
2021/01/28 13:04:17;;;;;;;7.53;3.77;;;7.00;99.90;;;;;;5079663;28;20229;-71
2021/01/28 13:06:42;;;;;;;6.33;3.90;;;7.00;99.90;;;;;;5055753;28;20226;-70
2021/01/28 13:09:08;;;;;;;2.93;2.73;;;7.20;99.90;;;;;;5071840;28;20226;-71
2021/01/28 13:11:34;;;;;;;3.07;2.70;;;7.30;99.90;;;;;;5083378;28;20226;-70
2021/01/28 13:13:59;;;;;;;1.83;1.73;;;7.40;99.90;;;;;;5083150;28;20227;-70
2021/01/28 13:16:26;;;;;;;1.47;1.37;;;7.50;99.90;;;;;;5088568;28;20299;-71
2021/01/28 13:18:52;;;;;;;3.10;1.60;;;7.60;99.90;;;;;;5104162;27;20214;-70
2021/01/28 13:21:17;;;;;;;2.07;1.57;;;7.80;99.90;;;;;;5106944;28;20448;-71
2021/01/28 13:23:43;;;;;;;3.27;1.63;;;7.90;99.90;;;;;;5106327;27;20454;-71
2021/01/28 13:26:08;;;;;;;1.87;1.63;;;8.00;99.90;;;;;;5089891;28;20559;-70
2021/01/28 13:28:34;;;;;;;1.60;1.50;;;8.10;99.90;;;;;;5056403;28;20242;-70
2021/01/28 13:31:00;;;;;;;2.07;1.17;;;8.20;99.90;;;;;;5056456;27;20273;-70
2021/01/28 13:33:26;;;;;;;1.43;1.33;;;8.30;99.90;;;;;;5092627;28;20217;-70
2021/01/28 13:35:51;;;;;;;1.57;1.40;;;8.50;99.90;;;;;;5054276;28;20721;-70
2021/01/28 13:38:17;;;;;;;0.67;0.67;;;8.60;99.90;;;;;;5077304;28;20225;-70